createdAt,value
2019-02-16T00:00:58.388Z,23.73
2019-02-16T00:02:02.969Z,22.25
2019-02-16T00:03:07.599Z,23.50
2019-02-16T00:04:12.273Z,21.68
2019-02-16T00:05:16.887Z,23.12
2019-02-16T00:06:21.609Z,23.67
2019-02-16T00:07:26.205Z,22.42
2019-02-16T00:08:30.843Z,22.40
2019-02-16T00:09:36.426Z,23.40
2019-02-16T00:10:41.098Z,22.90
2019-02-16T00:11:45.710Z,22.22
2019-02-16T00:12:50.421Z,22.93
2019-02-16T00:13:55.004Z,21.10
2019-02-16T00:14:59.688Z,23.42
2019-02-16T00:16:04.275Z,22.93
2019-02-16T00:17:08.878Z,23.73
2019-02-16T00:18:13.495Z,23.83
2019-02-16T00:19:18.112Z,22.55
2019-02-16T00:20:22.838Z,23.38
2019-02-16T00:21:27.486Z,23.50
2019-02-16T00:22:32.129Z,22.80
2019-02-16T00:23:36.811Z,22.50
2019-02-16T00:24:41.382Z,23.35
2019-02-16T00:25:46.062Z,22.60
2019-02-16T00:26:50.607Z,22.40
2019-02-16T00:27:55.329Z,22.80
2019-02-16T00:28:59.936Z,22.90
2019-02-16T00:30:04.667Z,22.93
2019-02-16T00:31:09.331Z,23.07
2019-02-16T00:32:13.904Z,22.80
2019-02-16T00:33:18.558Z,21.85
2019-02-16T00:34:23.141Z,22.50
2019-02-16T00:35:27.744Z,21.85
2019-02-16T00:36:32.339Z,21.85
2019-02-16T00:37:36.908Z,21.62
2019-02-16T00:38:41.532Z,22.45
2019-02-16T00:39:46.193Z,21.65
2019-02-16T00:40:50.771Z,22.32
2019-02-16T00:41:55.426Z,23.00
2019-02-16T00:43:00.037Z,24.70
2019-02-16T00:44:04.705Z,21.95
2019-02-16T00:45:09.359Z,22.20
2019-02-16T00:46:14.050Z,23.38
2019-02-16T00:47:18.677Z,23.07
2019-02-16T00:48:23.227Z,21.45
2019-02-16T00:49:27.774Z,22.75
2019-02-16T00:50:32.355Z,21.95
2019-02-16T00:51:36.963Z,21.68
2019-02-16T00:52:41.539Z,22.02
2019-02-16T00:53:46.189Z,21.87
2019-02-16T00:54:50.798Z,22.40
2019-02-16T00:55:55.391Z,23.25
2019-02-16T00:57:00.052Z,23.05
2019-02-16T00:58:04.640Z,23.42
2019-02-16T00:59:09.297Z,21.87
2019-02-16T01:00:13.950Z,22.65
2019-02-16T01:01:18.515Z,23.00
2019-02-16T01:02:23.179Z,23.10
2019-02-16T01:03:27.814Z,23.47
2019-02-16T01:04:32.387Z,22.10
2019-02-16T01:05:36.955Z,22.15
2019-02-16T01:06:41.540Z,21.12
2019-02-16T01:07:46.099Z,20.50
2019-02-16T01:08:50.666Z,23.02
2019-02-16T01:09:55.315Z,21.93
2019-02-16T01:10:59.963Z,22.07
2019-02-16T01:12:04.671Z,21.62
2019-02-16T01:13:09.350Z,20.50
2019-02-16T01:14:13.912Z,20.00
2019-02-16T01:15:18.485Z,20.15
2019-02-16T01:16:23.072Z,20.57
2019-02-16T01:17:27.684Z,19.57
2019-02-16T01:18:32.284Z,21.48
2019-02-16T01:19:36.982Z,21.85
2019-02-16T01:20:41.575Z,22.17
2019-02-16T01:21:46.138Z,19.55
2019-02-16T01:22:50.737Z,19.95
2019-02-16T01:23:55.366Z,18.02
2019-02-16T01:25:00.110Z,18.55
2019-02-16T01:26:04.947Z,18.60
2019-02-16T01:27:09.658Z,18.32
2019-02-16T01:28:14.211Z,18.23
2019-02-16T01:29:18.870Z,17.55
2019-02-16T01:30:23.550Z,18.80
2019-02-16T01:31:28.149Z,18.10
2019-02-16T01:32:32.708Z,18.73
2019-02-16T01:33:37.344Z,18.50
2019-02-16T01:34:42.107Z,17.10
2019-02-16T01:35:46.828Z,17.45
2019-02-16T01:36:51.526Z,18.07
2019-02-16T01:37:56.170Z,17.25
2019-02-16T01:39:00.818Z,17.10
2019-02-16T01:40:07.623Z,16.97
2019-02-16T01:41:12.266Z,17.02
2019-02-16T01:42:16.854Z,17.15
2019-02-16T01:43:21.435Z,15.65
2019-02-16T01:44:26.039Z,15.50
2019-02-16T01:45:30.660Z,14.70
2019-02-16T01:46:35.243Z,15.48
2019-02-16T01:47:39.821Z,15.48
2019-02-16T01:48:44.391Z,15.40
2019-02-16T01:49:48.991Z,15.20
2019-02-16T01:50:53.628Z,15.55
2019-02-16T01:51:58.216Z,16.00
2019-02-16T01:53:02.776Z,14.50
2019-02-16T01:54:07.374Z,14.68
2019-02-16T01:55:12.023Z,14.15
2019-02-16T01:56:16.622Z,15.45
2019-02-16T01:57:21.179Z,14.65
2019-02-16T01:58:25.780Z,14.18
2019-02-16T01:59:30.316Z,15.28
2019-02-16T02:00:34.876Z,17.25
2019-02-16T02:01:39.551Z,15.50
2019-02-16T02:02:44.388Z,16.02
2019-02-16T02:03:49.021Z,15.18
2019-02-16T02:04:53.622Z,16.50
2019-02-16T02:05:58.634Z,16.70
2019-02-16T02:07:04.251Z,17.92
2019-02-16T02:08:08.849Z,17.17
2019-02-16T02:09:13.755Z,17.15
2019-02-16T02:10:18.392Z,16.45
2019-02-16T02:11:23.042Z,17.12
2019-02-16T02:12:27.733Z,16.32
2019-02-16T02:13:32.345Z,15.53
2019-02-16T02:14:36.973Z,17.05
2019-02-16T02:15:41.609Z,16.42
2019-02-16T02:16:46.190Z,16.32
2019-02-16T02:17:50.776Z,15.28
2019-02-16T02:18:55.347Z,15.75
2019-02-16T02:19:59.938Z,16.05
2019-02-16T02:21:04.538Z,16.48
2019-02-16T02:22:09.146Z,15.85
2019-02-16T02:23:13.749Z,16.27
2019-02-16T02:24:18.496Z,14.40
2019-02-16T02:25:24.032Z,15.48
2019-02-16T02:26:28.721Z,15.03
2019-02-16T02:27:33.318Z,14.20
2019-02-16T02:28:37.951Z,14.68
2019-02-16T02:29:42.537Z,16.45
2019-02-16T02:30:47.306Z,14.00
2019-02-16T02:31:51.958Z,15.15
2019-02-16T02:32:56.687Z,14.05
2019-02-16T02:34:01.298Z,13.98
2019-02-16T02:35:06.153Z,14.73
2019-02-16T02:36:10.801Z,14.43
2019-02-16T02:37:15.439Z,14.98
2019-02-16T02:38:20.006Z,14.53
2019-02-16T02:39:24.613Z,14.55
2019-02-16T02:40:29.156Z,14.23
2019-02-16T02:41:33.731Z,13.95
2019-02-16T02:42:38.329Z,14.40
2019-02-16T02:43:42.959Z,14.05
2019-02-16T02:44:47.767Z,14.60
2019-02-16T02:45:52.358Z,14.30
2019-02-16T02:46:56.995Z,14.95
2019-02-16T02:48:01.593Z,13.28
2019-02-16T02:49:06.251Z,13.72
2019-02-16T02:50:10.867Z,13.93
2019-02-16T02:51:15.412Z,13.50
2019-02-16T02:52:20.029Z,13.48
2019-02-16T02:53:30.972Z,12.80
2019-02-16T02:54:31.036Z,13.80
2019-02-16T02:55:35.695Z,13.22
2019-02-16T02:56:40.263Z,13.90
2019-02-16T02:57:44.844Z,14.60
2019-02-16T02:58:49.430Z,12.58
2019-02-16T02:59:53.994Z,13.45
2019-02-16T03:00:59.697Z,12.18
2019-02-16T03:02:04.528Z,12.82
2019-02-16T03:03:09.273Z,11.97
2019-02-16T03:04:13.878Z,12.45
2019-02-16T03:05:18.655Z,12.55
2019-02-16T03:06:23.236Z,12.40
2019-02-16T03:07:28.120Z,12.43
2019-02-16T03:08:32.934Z,12.37
2019-02-16T03:09:37.481Z,11.93
2019-02-16T03:10:45.434Z,11.93
2019-02-16T03:11:50.094Z,12.35
2019-02-16T03:12:54.783Z,11.45
2019-02-16T03:13:59.358Z,11.90
2019-02-16T03:15:04.392Z,11.30
2019-02-16T03:16:09.185Z,11.70
2019-02-16T03:17:13.943Z,11.88
2019-02-16T03:18:19.467Z,11.15
2019-02-16T03:19:24.287Z,10.53
2019-02-16T03:20:28.920Z,11.20
2019-02-16T03:21:33.543Z,10.63
2019-02-16T03:23:16.038Z,10.68
2019-02-16T03:24:20.829Z,10.28
2019-02-16T03:25:26.836Z,11.10
2019-02-16T03:27:04.403Z,11.03
2019-02-16T03:28:30.621Z,11.00
2019-02-16T03:30:00.506Z,10.88
2019-02-16T03:31:25.189Z,11.60
2019-02-16T03:32:57.022Z,10.75
2019-02-16T03:34:14.720Z,10.82
2019-02-16T03:35:51.727Z,11.03
2019-02-16T03:37:32.478Z,9.85
2019-02-16T03:38:59.911Z,9.75
2019-02-16T03:40:04.557Z,10.35
2019-02-16T03:41:09.518Z,11.75
2019-02-16T03:42:14.180Z,10.08
2019-02-16T03:43:18.742Z,10.95
2019-02-16T03:44:23.414Z,11.90
2019-02-16T03:45:28.164Z,11.50
2019-02-16T03:46:32.851Z,12.30
2019-02-16T03:47:37.693Z,10.70
2019-02-16T03:48:42.279Z,11.38
2019-02-16T03:49:47.079Z,11.63
2019-02-16T03:50:51.847Z,11.18
2019-02-16T03:51:56.478Z,11.10
2019-02-16T03:53:02.001Z,11.28
2019-02-16T03:54:06.705Z,10.82
2019-02-16T03:55:11.385Z,10.70
2019-02-16T03:56:16.014Z,11.38
2019-02-16T03:57:20.747Z,10.95
2019-02-16T03:58:25.473Z,10.45
2019-02-16T03:59:30.219Z,10.48
2019-02-16T04:00:34.894Z,11.90
2019-02-16T04:01:39.507Z,10.65
2019-02-16T04:02:44.263Z,10.60
2019-02-16T04:03:48.916Z,11.10
2019-02-16T04:04:53.472Z,10.50
2019-02-16T04:05:58.198Z,11.78
2019-02-16T04:07:03.081Z,11.40
2019-02-16T04:08:07.686Z,11.10
2019-02-16T04:09:12.355Z,10.88
2019-02-16T04:10:17.056Z,11.30
2019-02-16T04:11:21.968Z,10.75
2019-02-16T04:12:26.814Z,10.90
2019-02-16T04:13:31.811Z,11.68
2019-02-16T04:14:36.484Z,11.10
2019-02-16T04:15:41.623Z,12.10
2019-02-16T04:16:46.663Z,11.43
2019-02-16T04:17:51.443Z,11.22
2019-02-16T04:18:56.068Z,11.15
2019-02-16T04:20:00.944Z,11.05
2019-02-16T04:21:06.814Z,11.05
2019-02-16T04:22:11.836Z,11.38
2019-02-16T04:23:16.515Z,11.03
2019-02-16T04:24:21.268Z,11.28
2019-02-16T04:25:25.890Z,10.82
2019-02-16T04:26:30.521Z,10.88
2019-02-16T04:27:35.183Z,11.10
2019-02-16T04:28:39.790Z,11.08
2019-02-16T04:29:44.768Z,11.68
2019-02-16T04:30:49.415Z,11.00
2019-02-16T04:31:54.082Z,10.65
2019-02-16T04:32:58.809Z,10.93
2019-02-16T04:34:03.821Z,11.48
2019-02-16T04:35:08.802Z,11.08
2019-02-16T04:36:13.357Z,11.45
2019-02-16T04:37:17.956Z,12.10
2019-02-16T04:38:23.157Z,11.03
2019-02-16T04:39:28.835Z,10.75
2019-02-16T04:40:33.496Z,11.50
2019-02-16T04:41:38.088Z,11.40
2019-02-16T04:42:42.792Z,10.90
2019-02-16T04:43:48.153Z,11.00
2019-02-16T04:44:52.803Z,11.33
2019-02-16T04:45:57.441Z,11.78
2019-02-16T04:47:02.020Z,12.23
2019-02-16T04:48:06.680Z,11.38
2019-02-16T04:49:12.217Z,11.40
2019-02-16T04:50:16.843Z,10.68
2019-02-16T04:51:21.451Z,12.15
2019-02-16T04:52:34.452Z,11.50
2019-02-16T04:53:32.489Z,10.93
2019-02-16T04:54:37.149Z,12.03
2019-02-16T04:55:41.848Z,11.80
2019-02-16T04:56:46.445Z,11.78
2019-02-16T04:57:51.207Z,11.25
2019-02-16T04:58:56.321Z,10.85
2019-02-16T05:00:01.064Z,11.33
2019-02-16T05:01:10.810Z,11.73
2019-02-16T05:02:15.504Z,11.10
2019-02-16T05:03:20.155Z,11.25
2019-02-16T05:04:24.872Z,11.43
2019-02-16T05:05:29.631Z,11.53
2019-02-16T05:06:34.239Z,11.40
2019-02-16T05:07:38.870Z,12.40
2019-02-16T05:08:43.436Z,10.90
2019-02-16T05:09:48.027Z,11.65
2019-02-16T05:10:52.623Z,11.48
2019-02-16T05:11:57.222Z,11.63
2019-02-16T05:13:01.944Z,11.68
2019-02-16T05:14:06.550Z,11.80
2019-02-16T05:15:11.203Z,11.73
2019-02-16T05:16:15.842Z,10.55
2019-02-16T05:17:20.552Z,11.12
2019-02-16T05:18:25.407Z,11.38
2019-02-16T05:19:30.003Z,10.90
2019-02-16T05:20:34.690Z,11.00
2019-02-16T05:21:39.320Z,10.88
2019-02-16T05:22:44.994Z,10.85
2019-02-16T05:23:49.682Z,10.90
2019-02-16T05:24:54.385Z,11.15
2019-02-16T05:25:58.970Z,10.95
2019-02-16T05:27:03.925Z,10.93
2019-02-16T05:28:08.794Z,10.70
2019-02-16T05:29:13.811Z,10.28
2019-02-16T05:30:18.529Z,11.73
2019-02-16T05:31:23.432Z,11.35
2019-02-16T05:32:28.326Z,10.72
2019-02-16T05:33:33.129Z,10.53
2019-02-16T05:34:38.023Z,10.38
2019-02-16T05:35:42.637Z,10.50
2019-02-16T05:36:47.209Z,11.35
2019-02-16T05:37:51.802Z,11.38
2019-02-16T05:38:56.574Z,10.95
2019-02-16T05:40:01.342Z,11.60
2019-02-16T05:41:06.046Z,11.50
2019-02-16T05:42:12.528Z,10.95
2019-02-16T05:43:17.239Z,10.55
2019-02-16T05:44:21.868Z,11.57
2019-02-16T05:45:26.485Z,11.53
2019-02-16T05:46:31.066Z,10.98
2019-02-16T05:47:36.690Z,10.80
2019-02-16T05:48:41.388Z,10.18
2019-02-16T05:49:46.110Z,11.55
2019-02-16T05:50:50.772Z,10.50
2019-02-16T05:51:55.373Z,11.40
2019-02-16T05:53:00.033Z,11.60
2019-02-16T05:54:04.773Z,11.22
2019-02-16T05:55:09.433Z,11.20
2019-02-16T05:56:14.211Z,11.55
2019-02-16T05:57:18.763Z,11.60
2019-02-16T05:58:23.421Z,11.55
2019-02-16T05:59:28.129Z,10.80
2019-02-16T06:00:33.659Z,11.43
2019-02-16T06:01:38.243Z,11.00
2019-02-16T06:02:42.820Z,10.80
2019-02-16T06:03:48.524Z,10.90
2019-02-16T06:04:53.156Z,12.00
2019-02-16T06:05:57.761Z,10.58
2019-02-16T06:07:02.347Z,10.53
2019-02-16T06:08:06.956Z,11.03
2019-02-16T06:09:11.623Z,10.65
2019-02-16T06:10:16.449Z,10.80
2019-02-16T06:11:21.021Z,10.65
2019-02-16T06:12:25.863Z,11.22
2019-02-16T06:13:30.505Z,11.57
2019-02-16T06:14:35.072Z,11.35
2019-02-16T06:15:39.663Z,12.07
2019-02-16T06:16:44.272Z,11.50
2019-02-16T06:17:48.946Z,10.75
2019-02-16T06:18:53.543Z,11.22
2019-02-16T06:19:58.750Z,11.05
2019-02-16T06:21:03.554Z,10.98
2019-02-16T06:22:08.121Z,10.88
2019-02-16T06:23:12.692Z,11.53
2019-02-16T06:24:17.455Z,10.55
2019-02-16T06:25:22.090Z,11.05
2019-02-16T06:26:26.664Z,9.93
2019-02-16T06:27:31.447Z,11.30
2019-02-16T06:28:36.053Z,11.10
2019-02-16T06:29:41.655Z,11.55
2019-02-16T06:30:46.368Z,11.20
2019-02-16T06:31:51.074Z,11.60
2019-02-16T06:32:55.665Z,11.68
2019-02-16T06:34:00.550Z,11.30
2019-02-16T06:35:24.782Z,11.68
2019-02-16T06:36:33.491Z,11.10
2019-02-16T06:37:38.329Z,12.13
2019-02-16T06:38:43.295Z,11.28
2019-02-16T06:39:48.294Z,12.75
2019-02-16T06:40:53.103Z,11.73
2019-02-16T06:41:57.787Z,11.68
2019-02-16T06:43:02.691Z,12.75
2019-02-16T06:44:07.287Z,12.37
2019-02-16T06:45:11.971Z,12.70
2019-02-16T06:46:16.563Z,12.20
2019-02-16T06:47:21.215Z,11.55
2019-02-16T06:48:25.788Z,12.13
2019-02-16T06:49:30.475Z,11.93
2019-02-16T06:50:36.941Z,12.45
2019-02-16T06:51:41.464Z,11.78
2019-02-16T06:52:46.071Z,11.25
2019-02-16T06:53:50.863Z,11.85
2019-02-16T06:54:55.498Z,10.72
2019-02-16T06:56:07.353Z,11.53
2019-02-16T06:57:28.888Z,11.40
2019-02-16T06:58:34.444Z,11.05
2019-02-16T06:59:39.128Z,11.22
2019-02-16T07:00:43.699Z,12.07
2019-02-16T07:01:48.299Z,11.55
2019-02-16T07:02:52.896Z,10.48
2019-02-16T07:03:57.561Z,12.18
2019-02-16T07:05:02.409Z,11.90
2019-02-16T07:06:06.972Z,11.18
2019-02-16T07:07:11.562Z,10.95
2019-02-16T07:08:16.175Z,10.70
2019-02-16T07:09:20.984Z,11.73
2019-02-16T07:10:25.684Z,11.50
2019-02-16T07:11:30.297Z,10.65
2019-02-16T07:12:35.282Z,11.95
2019-02-16T07:13:39.905Z,12.35
2019-02-16T07:14:44.531Z,10.93
2019-02-16T07:16:08.232Z,10.65
2019-02-16T07:17:34.842Z,10.88
2019-02-16T07:18:50.667Z,11.53
2019-02-16T07:19:57.514Z,10.03
2019-02-16T07:21:02.203Z,11.15
2019-02-16T07:22:06.963Z,10.35
2019-02-16T07:23:11.511Z,10.75
2019-02-16T07:24:16.068Z,10.75
2019-02-16T07:25:20.661Z,10.08
2019-02-16T07:26:25.617Z,10.15
2019-02-16T07:27:30.243Z,11.63
2019-02-16T07:28:34.851Z,10.78
2019-02-16T07:29:39.496Z,10.75
2019-02-16T07:30:44.290Z,10.60
2019-02-16T07:31:49.003Z,10.82
2019-02-16T07:32:53.566Z,11.63
2019-02-16T07:33:58.136Z,10.63
2019-02-16T07:35:02.740Z,10.60
2019-02-16T07:36:07.348Z,10.50
2019-02-16T07:37:12.003Z,10.60
2019-02-16T07:38:16.627Z,10.78
2019-02-16T07:39:21.510Z,11.65
2019-02-16T07:40:26.151Z,11.18
2019-02-16T07:41:31.125Z,10.20
2019-02-16T07:42:49.698Z,11.45
2019-02-16T07:44:23.502Z,11.25
2019-02-16T07:45:44.407Z,10.70
2019-02-16T07:47:03.933Z,10.80
2019-02-16T07:48:16.655Z,11.48
2019-02-16T07:49:26.159Z,10.88
2019-02-16T07:50:45.315Z,11.05
2019-02-16T07:52:01.616Z,11.57
2019-02-16T07:53:31.287Z,10.93
2019-02-16T07:54:38.743Z,10.78
2019-02-16T07:55:53.671Z,11.43
2019-02-16T07:57:03.407Z,10.68
2019-02-16T07:58:25.599Z,10.48
2019-02-16T07:59:57.965Z,9.93
2019-02-16T08:01:23.941Z,10.65
2019-02-16T08:02:37.710Z,10.25
2019-02-16T08:03:48.397Z,10.80
2019-02-16T08:05:16.907Z,9.83
2019-02-16T08:06:46.811Z,10.00
2019-02-16T08:08:20.242Z,8.58
2019-02-16T08:09:36.356Z,8.90
2019-02-16T08:11:02.653Z,9.75
2019-02-16T08:12:26.465Z,10.35
2019-02-16T08:13:51.628Z,11.18
2019-02-16T08:15:07.278Z,11.00
2019-02-16T08:16:18.525Z,9.48
2019-02-16T08:17:40.700Z,9.18
2019-02-16T08:18:57.600Z,8.40
2019-02-16T08:20:10.059Z,9.03
2019-02-16T08:21:42.884Z,8.45
2019-02-16T08:23:05.018Z,9.55
2019-02-16T08:24:29.056Z,8.75
2019-02-16T08:25:43.177Z,7.72
2019-02-16T08:27:14.392Z,9.93
2019-02-16T08:28:26.270Z,8.38
2019-02-16T08:29:42.097Z,7.60
2019-02-16T08:31:24.121Z,8.80
2019-02-16T08:32:44.619Z,7.70
2019-02-16T08:33:56.169Z,6.75
2019-02-16T08:35:12.291Z,6.30
2019-02-16T08:36:41.101Z,5.87
2019-02-16T08:37:53.565Z,5.70
2019-02-16T08:39:12.266Z,7.00
2019-02-16T08:40:32.953Z,6.40
2019-02-16T08:42:00.477Z,5.80
2019-02-16T08:43:28.190Z,6.12
2019-02-16T08:44:53.480Z,6.87
2019-02-16T08:46:29.396Z,6.80
2019-02-16T08:47:51.599Z,5.75
2019-02-16T08:49:21.213Z,5.08
2019-02-16T08:50:39.965Z,5.50
2019-02-16T08:52:02.115Z,5.00
2019-02-16T08:53:15.089Z,5.80
2019-02-16T08:54:37.639Z,5.70
2019-02-16T08:55:59.791Z,6.33
2019-02-16T08:57:20.218Z,5.78
2019-02-16T08:58:33.302Z,5.60
2019-02-16T08:59:48.948Z,5.62
2019-02-16T09:01:27.837Z,6.30
2019-02-16T09:02:48.900Z,5.45
2019-02-16T09:04:04.662Z,8.50
2019-02-16T09:05:18.631Z,5.10
2019-02-16T09:06:30.374Z,4.92
2019-02-16T09:07:49.888Z,5.35
2019-02-16T09:09:17.783Z,4.47
2019-02-16T09:10:40.664Z,5.00
2019-02-16T09:11:58.362Z,5.20
2019-02-16T09:13:11.740Z,5.35
2019-02-16T09:14:31.718Z,4.90
2019-02-16T09:15:46.998Z,5.67
2019-02-16T09:17:05.795Z,5.35
2019-02-16T09:18:31.699Z,5.35
2019-02-16T09:19:52.250Z,5.45
2019-02-16T09:21:15.988Z,5.15
2019-02-16T09:22:28.651Z,5.30
2019-02-16T09:23:58.915Z,5.60
2019-02-16T09:25:14.196Z,5.60
2019-02-16T09:26:40.949Z,6.87
2019-02-16T09:28:01.433Z,6.40
2019-02-16T09:29:37.006Z,6.80
2019-02-16T09:31:08.810Z,6.42
2019-02-16T09:32:41.370Z,6.22
2019-02-16T09:34:01.905Z,4.95
2019-02-16T09:35:13.675Z,6.20
2019-02-16T09:36:26.361Z,8.18
2019-02-16T09:38:02.359Z,6.10
2019-02-16T09:39:19.661Z,7.00
2019-02-16T09:40:33.552Z,5.45
2019-02-16T09:41:44.409Z,5.85
2019-02-16T09:43:02.393Z,6.25
2019-02-16T09:44:29.882Z,5.42
2019-02-16T09:45:56.099Z,4.83
2019-02-16T09:47:11.423Z,4.30
2019-02-16T09:48:22.201Z,6.85
2019-02-16T09:49:39.591Z,7.00
2019-02-16T09:50:52.713Z,5.10
2019-02-16T09:52:23.276Z,5.70
2019-02-16T09:54:07.938Z,8.10
2019-02-16T09:55:23.044Z,5.12
2019-02-16T09:56:35.253Z,4.62
2019-02-16T09:57:56.465Z,5.40
2019-02-16T09:59:18.657Z,5.35
2019-02-16T10:00:45.413Z,5.25
2019-02-16T10:02:13.002Z,5.30
2019-02-16T10:03:26.478Z,4.10
2019-02-16T10:04:37.003Z,4.90
2019-02-16T10:06:01.260Z,4.28
2019-02-16T10:07:20.975Z,4.45
2019-02-16T10:08:51.113Z,4.60
2019-02-16T10:10:18.743Z,4.12
2019-02-16T10:11:31.040Z,3.92
2019-02-16T10:12:52.736Z,4.20
2019-02-16T10:14:18.137Z,4.50
2019-02-16T10:15:44.964Z,4.40
2019-02-16T10:17:06.181Z,3.85
2019-02-16T10:18:30.884Z,4.08
2019-02-16T10:19:44.578Z,3.92
2019-02-16T10:21:17.600Z,3.35
2019-02-16T10:22:41.323Z,3.72
2019-02-16T10:24:18.224Z,3.50
2019-02-16T10:25:42.063Z,3.35
2019-02-16T10:27:04.326Z,2.90
2019-02-16T10:28:26.699Z,3.35
2019-02-16T10:29:56.533Z,3.30
2019-02-16T10:31:07.929Z,3.30
2019-02-16T10:32:30.363Z,3.25
2019-02-16T10:33:52.867Z,3.30
2019-02-16T10:35:14.872Z,3.10
2019-02-16T10:36:44.832Z,2.90
2019-02-16T10:38:17.338Z,3.67
2019-02-16T10:39:39.806Z,3.47
2019-02-16T10:40:59.197Z,3.20
2019-02-16T10:42:29.461Z,3.83
2019-02-16T10:44:00.845Z,3.17
2019-02-16T10:45:23.904Z,3.35
2019-02-16T10:46:45.942Z,3.60
2019-02-16T10:48:12.757Z,3.70
2019-02-16T10:49:34.877Z,3.77
2019-02-16T10:50:50.386Z,3.45
2019-02-16T10:52:00.890Z,3.22
2019-02-16T10:53:29.151Z,3.40
2019-02-16T10:54:49.660Z,3.40
2019-02-16T10:56:06.948Z,3.67
2019-02-16T10:57:29.319Z,3.83
2019-02-16T10:58:43.889Z,3.40
2019-02-16T10:59:59.507Z,3.15
2019-02-16T11:01:26.154Z,3.55
2019-02-16T11:02:49.954Z,2.92
2019-02-16T11:03:58.723Z,3.05
2019-02-16T11:05:34.354Z,3.20
2019-02-16T11:07:02.512Z,3.12
2019-02-16T11:08:15.867Z,3.40
2019-02-16T11:09:38.916Z,3.80
2019-02-16T11:11:00.715Z,3.10
2019-02-16T11:12:27.343Z,3.15
2019-02-16T11:13:43.892Z,3.25
2019-02-16T11:15:06.110Z,3.15
2019-02-16T11:16:23.641Z,3.10
2019-02-16T11:17:46.108Z,3.35
2019-02-16T11:19:10.916Z,3.70
2019-02-16T11:20:33.353Z,3.85
2019-02-16T11:21:53.443Z,3.77
2019-02-16T11:23:09.545Z,3.33
2019-02-16T11:24:20.725Z,3.15
2019-02-16T11:25:48.396Z,3.40
2019-02-16T11:26:59.330Z,3.90
2019-02-16T11:28:14.899Z,3.45
2019-02-16T11:29:50.631Z,3.55
2019-02-16T11:31:06.032Z,3.85
2019-02-16T11:32:28.198Z,3.35
2019-02-16T11:33:46.559Z,3.80
2019-02-16T11:35:01.686Z,3.35
2019-02-16T11:36:25.810Z,3.20
2019-02-16T11:37:36.633Z,3.25
2019-02-16T11:38:47.085Z,3.65
2019-02-16T11:40:09.160Z,3.50
2019-02-16T11:41:19.287Z,3.35
2019-02-16T11:42:31.428Z,4.10
2019-02-16T11:43:41.763Z,3.50
2019-02-16T11:45:08.633Z,5.85
2019-02-16T11:46:23.455Z,3.52
2019-02-16T11:47:39.578Z,3.67
2019-02-16T11:48:50.343Z,3.55
2019-02-16T11:50:11.034Z,3.47
2019-02-16T11:51:38.535Z,3.55
2019-02-16T11:53:11.179Z,3.20
2019-02-16T11:54:33.649Z,3.87
2019-02-16T11:55:59.971Z,3.25
2019-02-16T11:57:35.851Z,3.30
2019-02-16T11:58:51.159Z,3.45
2019-02-16T12:00:11.399Z,3.62
2019-02-16T12:01:27.535Z,3.40
2019-02-16T12:02:54.244Z,3.35
2019-02-16T12:04:09.550Z,2.80
2019-02-16T12:05:25.926Z,3.08
2019-02-16T12:06:55.545Z,3.10
2019-02-16T12:08:05.966Z,3.65
2019-02-16T12:09:36.692Z,3.20
2019-02-16T12:10:51.347Z,3.20
2019-02-16T12:12:11.030Z,3.25
2019-02-16T12:13:30.238Z,3.30
2019-02-16T12:15:01.140Z,2.90
2019-02-16T12:16:14.443Z,3.40
2019-02-16T12:17:29.624Z,3.17
2019-02-16T12:19:02.354Z,3.55
2019-02-16T12:20:33.341Z,3.30
2019-02-16T12:21:48.916Z,3.20
2019-02-16T12:23:20.636Z,2.98
2019-02-16T12:24:40.159Z,3.10
2019-02-16T12:26:06.596Z,3.55
2019-02-16T12:27:28.475Z,3.17
2019-02-16T12:28:54.295Z,2.98
2019-02-16T12:30:06.197Z,2.80
2019-02-16T12:31:25.882Z,2.70
2019-02-16T12:32:44.367Z,3.35
2019-02-16T12:34:03.480Z,3.40
2019-02-16T12:35:21.521Z,3.35
2019-02-16T12:36:34.379Z,3.40
2019-02-16T12:37:47.323Z,3.00
2019-02-16T12:39:05.819Z,3.27
2019-02-16T12:40:36.307Z,2.67
2019-02-16T12:42:02.826Z,9.15
2019-02-16T12:43:26.619Z,25.92
2019-02-16T12:44:59.286Z,2.90
2019-02-16T12:46:19.668Z,3.17
2019-02-16T12:47:43.407Z,3.05
2019-02-16T12:48:54.189Z,2.70
2019-02-16T12:50:05.950Z,3.05
2019-02-16T12:51:22.904Z,2.80
2019-02-16T12:52:45.383Z,2.80
2019-02-16T12:54:07.516Z,2.90
2019-02-16T12:55:34.104Z,2.65
2019-02-16T12:56:43.838Z,3.17
2019-02-16T12:57:55.197Z,2.70
2019-02-16T12:59:14.911Z,2.90
2019-02-16T13:00:27.624Z,2.87
2019-02-16T13:01:38.984Z,3.45
2019-02-16T13:02:53.839Z,2.70
2019-02-16T13:04:10.663Z,2.62
2019-02-16T13:05:33.109Z,2.98
2019-02-16T13:07:03.019Z,2.90
2019-02-16T13:08:15.940Z,2.62
2019-02-16T13:09:45.719Z,2.83
2019-02-16T13:11:12.380Z,2.70
2019-02-16T13:12:23.476Z,2.98
2019-02-16T13:13:56.046Z,3.20
2019-02-16T13:15:09.061Z,2.60
2019-02-16T13:16:30.526Z,2.33
2019-02-16T13:17:55.910Z,3.10
2019-02-16T13:19:10.740Z,3.25
2019-02-16T13:20:28.622Z,3.10
2019-02-16T13:21:46.608Z,3.30
2019-02-16T13:23:11.989Z,3.00
2019-02-16T13:24:30.480Z,3.02
2019-02-16T13:25:59.235Z,3.00
2019-02-16T13:27:10.650Z,2.65
2019-02-16T13:28:28.877Z,3.02
2019-02-16T13:29:58.024Z,3.00
2019-02-16T13:31:08.659Z,3.02
2019-02-16T13:32:21.947Z,2.58
2019-02-16T13:33:43.051Z,3.20
2019-02-16T13:35:09.738Z,2.80
2019-02-16T13:36:24.120Z,2.92
2019-02-16T13:37:48.356Z,2.80
2019-02-16T13:38:59.591Z,3.27
2019-02-16T13:40:13.962Z,3.05
2019-02-16T13:41:36.187Z,3.42
2019-02-16T13:42:55.579Z,3.30
2019-02-16T13:44:18.361Z,3.10
2019-02-16T13:45:33.537Z,3.47
2019-02-16T13:46:57.253Z,3.10
2019-02-16T13:48:10.124Z,3.17
2019-02-16T13:49:19.715Z,4.20
2019-02-16T13:50:30.224Z,3.35
2019-02-16T13:51:40.569Z,3.37
2019-02-16T13:53:03.275Z,3.47
2019-02-16T13:54:21.458Z,3.77
2019-02-16T13:55:45.475Z,3.70
2019-02-16T13:57:15.035Z,5.47
2019-02-16T13:58:47.754Z,3.70
2019-02-16T14:00:09.849Z,3.83
2019-02-16T14:01:36.549Z,3.20
2019-02-16T14:02:59.520Z,3.30
2019-02-16T14:04:18.971Z,3.70
2019-02-16T14:05:32.484Z,5.17
2019-02-16T14:07:05.381Z,4.03
2019-02-16T14:08:17.462Z,3.15
2019-02-16T14:09:45.675Z,3.17
2019-02-16T14:11:07.923Z,4.45
2019-02-16T14:12:46.787Z,3.20
2019-02-16T14:14:01.496Z,3.25
2019-02-16T14:15:32.351Z,4.45
2019-02-16T14:16:45.836Z,3.62
2019-02-16T14:17:51.648Z,3.60
2019-02-16T14:18:56.543Z,3.52
2019-02-16T14:20:01.273Z,4.10
2019-02-16T14:21:07.037Z,3.20
2019-02-16T14:22:11.687Z,3.50
2019-02-16T14:23:16.264Z,4.37
2019-02-16T14:24:39.919Z,3.22
2019-02-16T14:25:48.130Z,3.90
2019-02-16T14:26:52.720Z,3.95
2019-02-16T14:27:57.316Z,4.40
2019-02-16T14:29:01.891Z,4.95
2019-02-16T14:30:07.673Z,3.83
2019-02-16T14:31:13.918Z,4.28
2019-02-16T14:32:18.507Z,5.28
2019-02-16T14:33:23.085Z,3.90
2019-02-16T14:34:27.649Z,4.37
2019-02-16T14:35:33.265Z,4.55
2019-02-16T14:36:37.827Z,3.30
2019-02-16T14:38:04.576Z,3.55
2019-02-16T14:39:15.108Z,3.33
2019-02-16T14:40:19.862Z,4.10
2019-02-16T14:41:24.626Z,3.30
2019-02-16T14:42:29.213Z,3.35
2019-02-16T14:43:33.879Z,3.15
2019-02-16T14:44:38.488Z,3.37
2019-02-16T14:45:43.125Z,3.10
2019-02-16T14:46:47.733Z,3.60
2019-02-16T14:47:52.403Z,3.70
2019-02-16T14:48:56.981Z,3.60
2019-02-16T14:50:01.559Z,3.42
2019-02-16T14:51:06.172Z,3.00
2019-02-16T14:52:11.016Z,3.50
2019-02-16T14:53:15.575Z,3.92
2019-02-16T14:54:20.139Z,3.80
2019-02-16T14:55:24.824Z,3.80
2019-02-16T14:56:29.448Z,3.40
2019-02-16T14:57:34.065Z,3.50
2019-02-16T14:58:38.640Z,3.67
2019-02-16T14:59:43.233Z,4.05
2019-02-16T15:00:48.408Z,3.67
2019-02-16T15:01:55.672Z,3.30
2019-02-16T15:03:00.311Z,3.42
2019-02-16T15:04:05.022Z,2.87
2019-02-16T15:05:09.772Z,3.75
2019-02-16T15:06:14.368Z,3.00
2019-02-16T15:07:18.971Z,3.08
2019-02-16T15:08:23.507Z,3.70
2019-02-16T15:09:28.069Z,3.25
2019-02-16T15:10:32.681Z,3.42
2019-02-16T15:11:37.333Z,3.70
2019-02-16T15:12:42.143Z,3.10
2019-02-16T15:13:47.327Z,3.25
2019-02-16T15:14:52.066Z,3.15
2019-02-16T15:15:56.817Z,2.92
2019-02-16T15:17:01.437Z,6.60
2019-02-16T15:18:06.074Z,2.90
2019-02-16T15:19:10.779Z,3.35
2019-02-16T15:20:15.979Z,3.65
2019-02-16T15:21:20.529Z,3.12
2019-02-16T15:22:25.098Z,3.17
2019-02-16T15:23:29.650Z,3.55
2019-02-16T15:24:34.244Z,3.50
2019-02-16T15:25:38.927Z,3.40
2019-02-16T15:26:43.513Z,3.77
2019-02-16T15:27:48.135Z,3.52
2019-02-16T15:28:53.080Z,5.28
2019-02-16T15:29:57.927Z,3.35
2019-02-16T15:31:02.523Z,3.20
2019-02-16T15:32:07.125Z,3.60